Portada
METAR-TAF:

METAR-TAF

Aeroports :

Golden Triangle Regional Airport

West Point-Starkville, Mississipí, Estats Units d'Amèrica

latitud: 33-27N, longitud: 088-35W, altitud: 80 m

Observació

L'informe es va fer fa 27 minuts, a les 16:56 UTC
Vent 7 kt del Nord-Est
Temperatura 27°C
Humitat 45%
Pressió 1022 hPa
Visibilitat: 16.1 km
Cel clar

METAR: KGTR 011656Z 05007KT 10SM CLR 27/14 A3018 RMK AO2 SLP227 T02720139

Hora: 12:23 (17:23 UTC)

Pronòstic

L'informe es va fer fa 6 hores i 3 minuts, a les 11:20 UTC
Pronòstic vàlid del 01 a les 12 UTC al 02 a les 12 UTC
Vent 6 kt del Est/Nord-Est
Visibilitat: 10 km
Núvols disperses a una alçada de 20000 ft

TAF: KGTR 011120Z 0112/0212 07006KT P6SM SCT200

Observacions i pronòstics meteorològics de més de 4000 aeroports (METAR i TAF).

Les estacions disponibles són els punts grocs i vermells al mapa.

Posi el ratolí al punt desitjat per veure el nom de l'estació.

Feu clic per veure les observacions i els pronòstics meteorològics.

Per canviar el mapa: feu clic els botons verds amb una creu de color negre per apropar; al botó verd amb un guió per allunyar la imatge; o en les fletxes verdes per a mapes adjacents.


METAR-TAF: